sensor_id;sensor_type;location;lat;lon;timestamp;P1;durP1;ratioP1;P2;durP2;ratioP2
15451;SDS011;7827;53.594;9.938;2024-03-02T00:01:06;0.70;;;0.70;;
15451;SDS011;7827;53.594;9.938;2024-03-02T00:03:35;0.80;;;0.80;;
15451;SDS011;7827;53.594;9.938;2024-03-02T00:06:05;0.70;;;0.70;;
15451;SDS011;7827;53.594;9.938;2024-03-02T00:08:34;0.70;;;0.70;;
15451;SDS011;7827;53.594;9.938;2024-03-02T00:11:03;0.70;;;0.70;;
15451;SDS011;7827;53.594;9.938;2024-03-02T00:13:31;0.70;;;0.70;;
15451;SDS011;7827;53.594;9.938;2024-03-02T00:16:01;0.70;;;0.70;;
15451;SDS011;7827;53.594;9.938;2024-03-02T00:18:31;0.80;;;0.80;;
15451;SDS011;7827;53.594;9.938;2024-03-02T00:21:01;0.70;;;0.70;;
15451;SDS011;7827;53.594;9.938;2024-03-02T00:23:32;0.80;;;0.80;;
15451;SDS011;7827;53.594;9.938;2024-03-02T00:26:01;0.80;;;0.80;;
15451;SDS011;7827;53.594;9.938;2024-03-02T00:28:31;0.80;;;0.80;;
15451;SDS011;7827;53.594;9.938;2024-03-02T00:31:02;0.70;;;0.70;;
15451;SDS011;7827;53.594;9.938;2024-03-02T00:33:32;0.75;;;0.75;;
15451;SDS011;7827;53.594;9.938;2024-03-02T00:36:02;0.70;;;0.70;;
15451;SDS011;7827;53.594;9.938;2024-03-02T00:38:32;0.70;;;0.70;;
15451;SDS011;7827;53.594;9.938;2024-03-02T00:41:03;0.80;;;0.80;;
15451;SDS011;7827;53.594;9.938;2024-03-02T00:43:42;0.75;;;0.75;;
15451;SDS011;7827;53.594;9.938;2024-03-02T00:46:18;0.80;;;0.80;;
15451;SDS011;7827;53.594;9.938;2024-03-02T00:48:56;0.70;;;0.70;;
15451;SDS011;7827;53.594;9.938;2024-03-02T00:51:26;0.70;;;0.70;;
15451;SDS011;7827;53.594;9.938;2024-03-02T00:53:57;0.70;;;0.70;;
15451;SDS011;7827;53.594;9.938;2024-03-02T00:56:27;0.70;;;0.70;;
15451;SDS011;7827;53.594;9.938;2024-03-02T00:58:55;0.70;;;0.70;;
15451;SDS011;7827;53.594;9.938;2024-03-02T01:01:24;0.70;;;0.70;;
15451;SDS011;7827;53.594;9.938;2024-03-02T01:03:52;0.80;;;0.80;;
15451;SDS011;7827;53.594;9.938;2024-03-02T01:06:20;0.70;;;0.70;;
15451;SDS011;7827;53.594;9.938;2024-03-02T01:08:49;0.70;;;0.70;;
15451;SDS011;7827;53.594;9.938;2024-03-02T01:11:20;0.70;;;0.70;;
15451;SDS011;7827;53.594;9.938;2024-03-02T01:13:50;0.80;;;0.80;;
15451;SDS011;7827;53.594;9.938;2024-03-02T01:16:19;0.70;;;0.70;;
15451;SDS011;7827;53.594;9.938;2024-03-02T01:18:47;0.70;;;0.70;;
15451;SDS011;7827;53.594;9.938;2024-03-02T01:21:16;0.80;;;0.80;;
15451;SDS011;7827;53.594;9.938;2024-03-02T01:23:44;0.80;;;0.80;;
15451;SDS011;7827;53.594;9.938;2024-03-02T01:26:13;0.80;;;0.80;;
15451;SDS011;7827;53.594;9.938;2024-03-02T01:28:42;0.80;;;0.80;;
15451;SDS011;7827;53.594;9.938;2024-03-02T01:31:10;0.80;;;0.80;;
15451;SDS011;7827;53.594;9.938;2024-03-02T01:33:39;0.70;;;0.70;;
15451;SDS011;7827;53.594;9.938;2024-03-02T01:36:07;0.70;;;0.70;;
15451;SDS011;7827;53.594;9.938;2024-03-02T01:38:35;0.80;;;0.80;;
15451;SDS011;7827;53.594;9.938;2024-03-02T01:41:03;0.80;;;0.80;;
15451;SDS011;7827;53.594;9.938;2024-03-02T01:43:32;0.80;;;0.80;;
15451;SDS011;7827;53.594;9.938;2024-03-02T01:46:03;0.80;;;0.80;;
15451;SDS011;7827;53.594;9.938;2024-03-02T01:48:31;0.80;;;0.80;;
15451;SDS011;7827;53.594;9.938;2024-03-02T01:51:00;0.70;;;0.70;;
15451;SDS011;7827;53.594;9.938;2024-03-02T01:53:28;0.75;;;0.75;;
15451;SDS011;7827;53.594;9.938;2024-03-02T01:55:57;0.80;;;0.80;;
15451;SDS011;7827;53.594;9.938;2024-03-02T01:58:25;0.80;;;0.80;;
15451;SDS011;7827;53.594;9.938;2024-03-02T02:00:53;0.80;;;0.80;;
15451;SDS011;7827;53.594;9.938;2024-03-02T02:03:23;0.80;;;0.80;;
15451;SDS011;7827;53.594;9.938;2024-03-02T02:05:51;0.80;;;0.80;;
15451;SDS011;7827;53.594;9.938;2024-03-02T02:08:19;0.70;;;0.70;;
15451;SDS011;7827;53.594;9.938;2024-03-02T02:10:47;0.80;;;0.80;;
15451;SDS011;7827;53.594;9.938;2024-03-02T02:13:15;0.80;;;0.80;;
15451;SDS011;7827;53.594;9.938;2024-03-02T02:15:44;0.80;;;0.80;;
15451;SDS011;7827;53.594;9.938;2024-03-02T02:18:12;0.80;;;0.80;;
15451;SDS011;7827;53.594;9.938;2024-03-02T02:20:41;0.80;;;0.80;;
15451;SDS011;7827;53.594;9.938;2024-03-02T02:23:10;0.77;;;0.77;;
15451;SDS011;7827;53.594;9.938;2024-03-02T02:25:40;0.80;;;0.80;;
15451;SDS011;7827;53.594;9.938;2024-03-02T02:28:08;0.80;;;0.80;;
15451;SDS011;7827;53.594;9.938;2024-03-02T02:30:36;0.80;;;0.80;;
15451;SDS011;7827;53.594;9.938;2024-03-02T02:33:05;0.70;;;0.70;;
15451;SDS011;7827;53.594;9.938;2024-03-02T02:35:33;0.80;;;0.80;;
15451;SDS011;7827;53.594;9.938;2024-03-02T02:38:00;0.80;;;0.80;;
15451;SDS011;7827;53.594;9.938;2024-03-02T02:40:31;0.80;;;0.80;;
15451;SDS011;7827;53.594;9.938;2024-03-02T02:42:59;0.80;;;0.80;;
15451;SDS011;7827;53.594;9.938;2024-03-02T02:45:27;0.80;;;0.80;;
15451;SDS011;7827;53.594;9.938;2024-03-02T02:47:55;0.80;;;0.80;;
15451;SDS011;7827;53.594;9.938;2024-03-02T02:50:24;0.80;;;0.80;;
15451;SDS011;7827;53.594;9.938;2024-03-02T02:52:52;0.80;;;0.80;;
15451;SDS011;7827;53.594;9.938;2024-03-02T02:55:20;0.80;;;0.80;;
15451;SDS011;7827;53.594;9.938;2024-03-02T02:57:50;0.80;;;0.80;;
15451;SDS011;7827;53.594;9.938;2024-03-02T03:00:18;0.85;;;0.85;;
15451;SDS011;7827;53.594;9.938;2024-03-02T03:02:49;0.80;;;0.80;;
15451;SDS011;7827;53.594;9.938;2024-03-02T03:05:17;0.70;;;0.70;;
15451;SDS011;7827;53.594;9.938;2024-03-02T03:07:46;0.80;;;0.80;;
15451;SDS011;7827;53.594;9.938;2024-03-02T03:10:16;0.80;;;0.80;;
15451;SDS011;7827;53.594;9.938;2024-03-02T03:12:47;0.80;;;0.80;;
15451;SDS011;7827;53.594;9.938;2024-03-02T03:15:17;0.80;;;0.80;;
15451;SDS011;7827;53.594;9.938;2024-03-02T03:17:45;0.80;;;0.80;;
15451;SDS011;7827;53.594;9.938;2024-03-02T03:20:14;0.80;;;0.80;;
15451;SDS011;7827;53.594;9.938;2024-03-02T03:22:42;0.77;;;0.77;;
15451;SDS011;7827;53.594;9.938;2024-03-02T03:25:10;0.70;;;0.70;;
15451;SDS011;7827;53.594;9.938;2024-03-02T03:27:39;0.80;;;0.80;;
15451;SDS011;7827;53.594;9.938;2024-03-02T03:30:08;0.80;;;0.80;;
15451;SDS011;7827;53.594;9.938;2024-03-02T03:32:39;0.80;;;0.80;;
15451;SDS011;7827;53.594;9.938;2024-03-02T03:35:07;0.80;;;0.80;;
15451;SDS011;7827;53.594;9.938;2024-03-02T03:37:36;0.80;;;0.80;;
15451;SDS011;7827;53.594;9.938;2024-03-02T03:40:05;0.80;;;0.80;;
15451;SDS011;7827;53.594;9.938;2024-03-02T03:42:37;0.80;;;0.80;;
15451;SDS011;7827;53.594;9.938;2024-03-02T03:45:06;0.77;;;0.77;;
15451;SDS011;7827;53.594;9.938;2024-03-02T03:47:34;0.80;;;0.80;;
15451;SDS011;7827;53.594;9.938;2024-03-02T03:50:05;0.70;;;0.70;;
15451;SDS011;7827;53.594;9.938;2024-03-02T03:52:34;0.70;;;0.70;;
15451;SDS011;7827;53.594;9.938;2024-03-02T03:55:02;0.70;;;0.70;;
15451;SDS011;7827;53.594;9.938;2024-03-02T03:57:32;0.80;;;0.80;;
15451;SDS011;7827;53.594;9.938;2024-03-02T04:00:00;0.80;;;0.80;;
15451;SDS011;7827;53.594;9.938;2024-03-02T04:02:37;0.80;;;0.80;;
15451;SDS011;7827;53.594;9.938;2024-03-02T04:05:07;0.80;;;0.80;;
15451;SDS011;7827;53.594;9.938;2024-03-02T04:07:38;0.80;;;0.80;;
15451;SDS011;7827;53.594;9.938;2024-03-02T04:10:07;0.80;;;0.80;;
15451;SDS011;7827;53.594;9.938;2024-03-02T04:12:36;0.80;;;0.80;;
15451;SDS011;7827;53.594;9.938;2024-03-02T04:15:05;0.80;;;0.80;;
15451;SDS011;7827;53.594;9.938;2024-03-02T04:17:35;0.70;;;0.70;;
15451;SDS011;7827;53.594;9.938;2024-03-02T04:20:03;0.80;;;0.80;;
15451;SDS011;7827;53.594;9.938;2024-03-02T04:22:34;0.80;;;0.80;;
15451;SDS011;7827;53.594;9.938;2024-03-02T04:25:03;0.80;;;0.80;;
15451;SDS011;7827;53.594;9.938;2024-03-02T04:27:33;0.80;;;0.80;;
15451;SDS011;7827;53.594;9.938;2024-03-02T04:30:02;0.80;;;0.80;;
15451;SDS011;7827;53.594;9.938;2024-03-02T04:32:32;0.70;;;0.70;;
15451;SDS011;7827;53.594;9.938;2024-03-02T04:35:00;0.80;;;0.80;;
15451;SDS011;7827;53.594;9.938;2024-03-02T04:37:28;0.80;;;0.80;;
15451;SDS011;7827;53.594;9.938;2024-03-02T04:39:58;0.80;;;0.80;;
15451;SDS011;7827;53.594;9.938;2024-03-02T04:42:27;0.80;;;0.80;;
15451;SDS011;7827;53.594;9.938;2024-03-02T04:44:55;0.90;;;0.90;;
15451;SDS011;7827;53.594;9.938;2024-03-02T04:47:23;0.80;;;0.80;;
15451;SDS011;7827;53.594;9.938;2024-03-02T04:49:51;0.80;;;0.80;;
15451;SDS011;7827;53.594;9.938;2024-03-02T04:52:19;0.80;;;0.80;;
15451;SDS011;7827;53.594;9.938;2024-03-02T04:54:48;0.80;;;0.80;;
15451;SDS011;7827;53.594;9.938;2024-03-02T04:57:34;0.80;;;0.80;;
15451;SDS011;7827;53.594;9.938;2024-03-02T05:00:03;0.80;;;0.80;;
15451;SDS011;7827;53.594;9.938;2024-03-02T05:02:34;0.80;;;0.80;;
15451;SDS011;7827;53.594;9.938;2024-03-02T05:05:02;0.80;;;0.80;;
15451;SDS011;7827;53.594;9.938;2024-03-02T05:07:31;0.80;;;0.80;;
15451;SDS011;7827;53.594;9.938;2024-03-02T05:09:59;0.80;;;0.80;;
15451;SDS011;7827;53.594;9.938;2024-03-02T05:12:27;0.90;;;0.90;;
15451;SDS011;7827;53.594;9.938;2024-03-02T05:15:17;0.80;;;0.80;;
15451;SDS011;7827;53.594;9.938;2024-03-02T05:17:46;0.80;;;0.80;;
15451;SDS011;7827;53.594;9.938;2024-03-02T05:20:14;0.73;;;0.73;;
15451;SDS011;7827;53.594;9.938;2024-03-02T05:22:43;0.80;;;0.80;;
15451;SDS011;7827;53.594;9.938;2024-03-02T05:25:11;0.70;;;0.70;;
15451;SDS011;7827;53.594;9.938;2024-03-02T05:27:39;0.70;;;0.70;;
15451;SDS011;7827;53.594;9.938;2024-03-02T05:30:08;0.80;;;0.80;;
15451;SDS011;7827;53.594;9.938;2024-03-02T05:32:38;0.80;;;0.80;;
15451;SDS011;7827;53.594;9.938;2024-03-02T05:35:07;0.80;;;0.80;;
15451;SDS011;7827;53.594;9.938;2024-03-02T05:37:37;0.80;;;0.80;;
15451;SDS011;7827;53.594;9.938;2024-03-02T05:40:06;0.80;;;0.80;;
15451;SDS011;7827;53.594;9.938;2024-03-02T05:42:35;0.70;;;0.70;;
15451;SDS011;7827;53.594;9.938;2024-03-02T05:45:04;0.80;;;0.80;;
15451;SDS011;7827;53.594;9.938;2024-03-02T05:47:32;0.80;;;0.80;;
15451;SDS011;7827;53.594;9.938;2024-03-02T05:50:02;0.80;;;0.80;;
15451;SDS011;7827;53.594;9.938;2024-03-02T05:52:31;0.80;;;0.80;;
15451;SDS011;7827;53.594;9.938;2024-03-02T05:54:59;0.80;;;0.80;;
15451;SDS011;7827;53.594;9.938;2024-03-02T05:57:27;0.80;;;0.80;;
15451;SDS011;7827;53.594;9.938;2024-03-02T06:00:12;0.80;;;0.80;;
15451;SDS011;7827;53.594;9.938;2024-03-02T06:02:43;0.80;;;0.80;;
15451;SDS011;7827;53.594;9.938;2024-03-02T06:05:13;0.80;;;0.80;;
15451;SDS011;7827;53.594;9.938;2024-03-02T06:07:41;0.80;;;0.80;;
15451;SDS011;7827;53.594;9.938;2024-03-02T06:10:10;0.80;;;0.80;;
15451;SDS011;7827;53.594;9.938;2024-03-02T06:12:40;0.80;;;0.80;;
15451;SDS011;7827;53.594;9.938;2024-03-02T06:15:08;0.80;;;0.80;;
15451;SDS011;7827;53.594;9.938;2024-03-02T06:17:37;0.80;;;0.80;;
15451;SDS011;7827;53.594;9.938;2024-03-02T06:20:05;0.77;;;0.77;;
15451;SDS011;7827;53.594;9.938;2024-03-02T06:22:36;0.70;;;0.70;;
15451;SDS011;7827;53.594;9.938;2024-03-02T06:25:05;0.80;;;0.80;;
15451;SDS011;7827;53.594;9.938;2024-03-02T06:27:34;0.80;;;0.80;;
15451;SDS011;7827;53.594;9.938;2024-03-02T06:30:02;0.77;;;0.77;;
15451;SDS011;7827;53.594;9.938;2024-03-02T06:32:31;0.80;;;0.80;;
15451;SDS011;7827;53.594;9.938;2024-03-02T06:34:59;0.80;;;0.80;;
15451;SDS011;7827;53.594;9.938;2024-03-02T06:37:27;0.80;;;0.80;;
15451;SDS011;7827;53.594;9.938;2024-03-02T06:39:57;0.80;;;0.80;;
15451;SDS011;7827;53.594;9.938;2024-03-02T06:42:25;0.80;;;0.80;;
15451;SDS011;7827;53.594;9.938;2024-03-02T06:44:53;0.80;;;0.80;;
15451;SDS011;7827;53.594;9.938;2024-03-02T06:47:22;0.77;;;0.77;;
15451;SDS011;7827;53.594;9.938;2024-03-02T06:49:50;0.80;;;0.80;;
15451;SDS011;7827;53.594;9.938;2024-03-02T06:52:19;0.80;;;0.80;;
15451;SDS011;7827;53.594;9.938;2024-03-02T06:54:50;0.70;;;0.70;;
15451;SDS011;7827;53.594;9.938;2024-03-02T06:57:20;0.80;;;0.80;;
15451;SDS011;7827;53.594;9.938;2024-03-02T06:59:48;0.80;;;0.80;;
15451;SDS011;7827;53.594;9.938;2024-03-02T07:02:20;0.80;;;0.80;;
15451;SDS011;7827;53.594;9.938;2024-03-02T07:04:49;0.80;;;0.80;;
15451;SDS011;7827;53.594;9.938;2024-03-02T07:07:17;0.80;;;0.80;;
15451;SDS011;7827;53.594;9.938;2024-03-02T07:09:46;0.80;;;0.80;;
15451;SDS011;7827;53.594;9.938;2024-03-02T07:12:14;0.70;;;0.70;;
15451;SDS011;7827;53.594;9.938;2024-03-02T07:14:44;0.80;;;0.80;;
15451;SDS011;7827;53.594;9.938;2024-03-02T07:17:37;0.80;;;0.80;;
15451;SDS011;7827;53.594;9.938;2024-03-02T07:20:06;0.80;;;0.80;;
15451;SDS011;7827;53.594;9.938;2024-03-02T07:22:34;0.70;;;0.70;;
15451;SDS011;7827;53.594;9.938;2024-03-02T07:25:06;0.80;;;0.80;;
15451;SDS011;7827;53.594;9.938;2024-03-02T07:27:55;0.80;;;0.80;;
15451;SDS011;7827;53.594;9.938;2024-03-02T07:30:25;0.82;;;0.82;;
15451;SDS011;7827;53.594;9.938;2024-03-02T07:32:53;0.70;;;0.70;;
15451;SDS011;7827;53.594;9.938;2024-03-02T07:35:21;0.80;;;0.80;;
15451;SDS011;7827;53.594;9.938;2024-03-02T07:37:53;0.70;;;0.70;;
15451;SDS011;7827;53.594;9.938;2024-03-02T07:40:21;0.80;;;0.80;;
15451;SDS011;7827;53.594;9.938;2024-03-02T07:42:50;0.80;;;0.80;;
15451;SDS011;7827;53.594;9.938;2024-03-02T07:45:18;0.80;;;0.80;;
15451;SDS011;7827;53.594;9.938;2024-03-02T07:47:48;0.80;;;0.80;;
15451;SDS011;7827;53.594;9.938;2024-03-02T07:50:16;0.70;;;0.70;;
15451;SDS011;7827;53.594;9.938;2024-03-02T07:52:44;0.80;;;0.80;;
15451;SDS011;7827;53.594;9.938;2024-03-02T07:55:13;0.80;;;0.80;;
15451;SDS011;7827;53.594;9.938;2024-03-02T07:57:41;0.80;;;0.80;;
15451;SDS011;7827;53.594;9.938;2024-03-02T08:00:09;0.80;;;0.80;;
15451;SDS011;7827;53.594;9.938;2024-03-02T08:02:38;0.80;;;0.80;;
15451;SDS011;7827;53.594;9.938;2024-03-02T08:05:10;0.80;;;0.80;;
15451;SDS011;7827;53.594;9.938;2024-03-02T08:07:38;0.80;;;0.80;;
15451;SDS011;7827;53.594;9.938;2024-03-02T08:10:07;0.80;;;0.80;;
15451;SDS011;7827;53.594;9.938;2024-03-02T08:12:36;0.70;;;0.70;;
15451;SDS011;7827;53.594;9.938;2024-03-02T08:15:05;0.80;;;0.80;;
15451;SDS011;7827;53.594;9.938;2024-03-02T08:17:33;0.80;;;0.80;;
15451;SDS011;7827;53.594;9.938;2024-03-02T08:20:04;0.80;;;0.80;;
15451;SDS011;7827;53.594;9.938;2024-03-02T08:22:35;0.70;;;0.70;;
15451;SDS011;7827;53.594;9.938;2024-03-02T08:25:04;0.70;;;0.70;;
15451;SDS011;7827;53.594;9.938;2024-03-02T08:27:32;0.70;;;0.70;;
15451;SDS011;7827;53.594;9.938;2024-03-02T08:30:01;0.70;;;0.70;;
15451;SDS011;7827;53.594;9.938;2024-03-02T08:32:32;0.80;;;0.80;;
15451;SDS011;7827;53.594;9.938;2024-03-02T08:35:01;0.70;;;0.70;;
15451;SDS011;7827;53.594;9.938;2024-03-02T08:37:29;0.73;;;0.73;;
15451;SDS011;7827;53.594;9.938;2024-03-02T08:39:59;0.70;;;0.70;;
15451;SDS011;7827;53.594;9.938;2024-03-02T08:42:27;0.70;;;0.70;;
15451;SDS011;7827;53.594;9.938;2024-03-02T08:44:55;0.80;;;0.80;;
15451;SDS011;7827;53.594;9.938;2024-03-02T08:47:23;0.80;;;0.80;;
15451;SDS011;7827;53.594;9.938;2024-03-02T08:49:52;0.70;;;0.70;;
15451;SDS011;7827;53.594;9.938;2024-03-02T08:52:21;0.80;;;0.80;;
15451;SDS011;7827;53.594;9.938;2024-03-02T08:54:49;0.80;;;0.80;;
15451;SDS011;7827;53.594;9.938;2024-03-02T08:57:19;0.80;;;0.80;;
15451;SDS011;7827;53.594;9.938;2024-03-02T08:59:47;0.80;;;0.80;;
15451;SDS011;7827;53.594;9.938;2024-03-02T09:02:15;0.80;;;0.80;;
15451;SDS011;7827;53.594;9.938;2024-03-02T09:04:44;0.70;;;0.70;;
15451;SDS011;7827;53.594;9.938;2024-03-02T09:07:12;0.80;;;0.80;;
15451;SDS011;7827;53.594;9.938;2024-03-02T09:09:40;0.80;;;0.80;;
15451;SDS011;7827;53.594;9.938;2024-03-02T09:12:08;0.80;;;0.80;;
15451;SDS011;7827;53.594;9.938;2024-03-02T09:14:38;0.80;;;0.80;;
15451;SDS011;7827;53.594;9.938;2024-03-02T09:17:08;0.80;;;0.80;;
15451;SDS011;7827;53.594;9.938;2024-03-02T09:19:37;0.75;;;0.75;;
15451;SDS011;7827;53.594;9.938;2024-03-02T09:22:06;0.70;;;0.70;;
15451;SDS011;7827;53.594;9.938;2024-03-02T09:24:34;0.73;;;0.73;;
15451;SDS011;7827;53.594;9.938;2024-03-02T09:27:03;0.80;;;0.80;;
15451;SDS011;7827;53.594;9.938;2024-03-02T09:29:32;0.80;;;0.80;;
15451;SDS011;7827;53.594;9.938;2024-03-02T09:32:01;0.80;;;0.80;;
15451;SDS011;7827;53.594;9.938;2024-03-02T09:34:30;0.80;;;0.80;;
15451;SDS011;7827;53.594;9.938;2024-03-02T09:36:58;0.80;;;0.80;;
15451;SDS011;7827;53.594;9.938;2024-03-02T09:39:26;0.77;;;0.77;;
15451;SDS011;7827;53.594;9.938;2024-03-02T09:41:54;0.80;;;0.80;;
15451;SDS011;7827;53.594;9.938;2024-03-02T09:44:23;0.70;;;0.70;;
15451;SDS011;7827;53.594;9.938;2024-03-02T09:46:52;0.70;;;0.70;;
15451;SDS011;7827;53.594;9.938;2024-03-02T09:49:22;0.70;;;0.70;;
15451;SDS011;7827;53.594;9.938;2024-03-02T09:51:50;0.70;;;0.70;;
15451;SDS011;7827;53.594;9.938;2024-03-02T09:54:18;0.70;;;0.70;;
15451;SDS011;7827;53.594;9.938;2024-03-02T09:56:49;0.70;;;0.70;;
15451;SDS011;7827;53.594;9.938;2024-03-02T09:59:17;0.70;;;0.70;;
15451;SDS011;7827;53.594;9.938;2024-03-02T10:01:56;0.70;;;0.70;;
15451;SDS011;7827;53.594;9.938;2024-03-02T10:04:27;0.70;;;0.70;;
15451;SDS011;7827;53.594;9.938;2024-03-02T10:07:10;0.70;;;0.70;;
15451;SDS011;7827;53.594;9.938;2024-03-02T10:09:39;0.70;;;0.70;;
15451;SDS011;7827;53.594;9.938;2024-03-02T10:12:09;0.70;;;0.70;;
15451;SDS011;7827;53.594;9.938;2024-03-02T10:14:40;0.70;;;0.70;;
15451;SDS011;7827;53.594;9.938;2024-03-02T10:17:09;0.70;;;0.70;;
15451;SDS011;7827;53.594;9.938;2024-03-02T10:19:40;0.70;;;0.70;;
15451;SDS011;7827;53.594;9.938;2024-03-02T10:22:09;0.70;;;0.70;;
15451;SDS011;7827;53.594;9.938;2024-03-02T10:24:38;0.70;;;0.70;;
15451;SDS011;7827;53.594;9.938;2024-03-02T10:27:08;0.70;;;0.70;;
15451;SDS011;7827;53.594;9.938;2024-03-02T10:29:37;0.70;;;0.70;;
15451;SDS011;7827;53.594;9.938;2024-03-02T10:32:08;0.70;;;0.70;;
15451;SDS011;7827;53.594;9.938;2024-03-02T10:34:39;0.70;;;0.70;;
15451;SDS011;7827;53.594;9.938;2024-03-02T10:37:10;0.70;;;0.70;;
15451;SDS011;7827;53.594;9.938;2024-03-02T10:39:39;0.70;;;0.70;;
15451;SDS011;7827;53.594;9.938;2024-03-02T10:42:08;0.70;;;0.70;;
15451;SDS011;7827;53.594;9.938;2024-03-02T10:44:36;0.70;;;0.70;;
15451;SDS011;7827;53.594;9.938;2024-03-02T10:47:05;0.70;;;0.70;;
15451;SDS011;7827;53.594;9.938;2024-03-02T10:49:33;0.70;;;0.70;;
15451;SDS011;7827;53.594;9.938;2024-03-02T10:52:03;0.70;;;0.70;;
15451;SDS011;7827;53.594;9.938;2024-03-02T10:54:31;0.70;;;0.70;;
15451;SDS011;7827;53.594;9.938;2024-03-02T10:57:04;0.70;;;0.70;;
15451;SDS011;7827;53.594;9.938;2024-03-02T10:59:36;0.70;;;0.70;;
15451;SDS011;7827;53.594;9.938;2024-03-02T11:02:06;0.70;;;0.70;;
15451;SDS011;7827;53.594;9.938;2024-03-02T11:04:37;0.70;;;0.70;;
15451;SDS011;7827;53.594;9.938;2024-03-02T11:07:09;0.70;;;0.70;;
15451;SDS011;7827;53.594;9.938;2024-03-02T11:09:39;0.70;;;0.70;;
15451;SDS011;7827;53.594;9.938;2024-03-02T11:12:09;0.70;;;0.70;;
15451;SDS011;7827;53.594;9.938;2024-03-02T11:14:44;0.70;;;0.70;;
15451;SDS011;7827;53.594;9.938;2024-03-02T11:17:13;0.70;;;0.70;;
15451;SDS011;7827;53.594;9.938;2024-03-02T11:19:43;0.70;;;0.70;;
15451;SDS011;7827;53.594;9.938;2024-03-02T11:22:14;0.70;;;0.70;;
15451;SDS011;7827;53.594;9.938;2024-03-02T11:24:47;0.70;;;0.70;;
15451;SDS011;7827;53.594;9.938;2024-03-02T11:27:58;0.70;;;0.70;;
15451;SDS011;7827;53.594;9.938;2024-03-02T11:33:25;0.70;;;0.70;;
15451;SDS011;7827;53.594;9.938;2024-03-02T11:35:56;0.70;;;0.70;;
15451;SDS011;7827;53.594;9.938;2024-03-02T11:38:32;0.70;;;0.70;;
15451;SDS011;7827;53.594;9.938;2024-03-02T11:41:01;0.70;;;0.70;;
15451;SDS011;7827;53.594;9.938;2024-03-02T11:43:30;0.70;;;0.70;;
15451;SDS011;7827;53.594;9.938;2024-03-02T11:46:00;0.70;;;0.70;;
15451;SDS011;7827;53.594;9.938;2024-03-02T11:48:34;0.70;;;0.70;;
15451;SDS011;7827;53.594;9.938;2024-03-02T11:51:04;0.70;;;0.70;;
15451;SDS011;7827;53.594;9.938;2024-03-02T11:53:33;0.60;;;0.60;;
15451;SDS011;7827;53.594;9.938;2024-03-02T11:56:05;0.70;;;0.70;;
15451;SDS011;7827;53.594;9.938;2024-03-02T11:58:35;0.70;;;0.70;;
15451;SDS011;7827;53.594;9.938;2024-03-02T12:01:04;0.70;;;0.70;;
15451;SDS011;7827;53.594;9.938;2024-03-02T12:03:33;0.60;;;0.60;;
15451;SDS011;7827;53.594;9.938;2024-03-02T12:06:02;0.70;;;0.70;;
15451;SDS011;7827;53.594;9.938;2024-03-02T12:08:33;0.70;;;0.70;;
15451;SDS011;7827;53.594;9.938;2024-03-02T12:11:02;0.70;;;0.70;;
15451;SDS011;7827;53.594;9.938;2024-03-02T12:13:32;0.70;;;0.70;;
15451;SDS011;7827;53.594;9.938;2024-03-02T12:16:01;0.70;;;0.70;;
15451;SDS011;7827;53.594;9.938;2024-03-02T12:18:29;0.70;;;0.70;;
15451;SDS011;7827;53.594;9.938;2024-03-02T12:20:57;0.70;;;0.70;;
15451;SDS011;7827;53.594;9.938;2024-03-02T12:23:26;0.68;;;0.68;;
15451;SDS011;7827;53.594;9.938;2024-03-02T12:25:55;0.70;;;0.70;;
15451;SDS011;7827;53.594;9.938;2024-03-02T12:28:24;0.70;;;0.70;;
15451;SDS011;7827;53.594;9.938;2024-03-02T12:30:52;0.70;;;0.70;;
15451;SDS011;7827;53.594;9.938;2024-03-02T12:33:21;0.60;;;0.60;;
15451;SDS011;7827;53.594;9.938;2024-03-02T12:35:49;0.70;;;0.70;;
15451;SDS011;7827;53.594;9.938;2024-03-02T12:38:17;0.70;;;0.70;;
15451;SDS011;7827;53.594;9.938;2024-03-02T12:40:47;0.70;;;0.70;;
15451;SDS011;7827;53.594;9.938;2024-03-02T12:43:17;0.70;;;0.70;;
15451;SDS011;7827;53.594;9.938;2024-03-02T12:45:45;0.70;;;0.70;;
15451;SDS011;7827;53.594;9.938;2024-03-02T12:48:14;0.70;;;0.70;;
15451;SDS011;7827;53.594;9.938;2024-03-02T12:50:43;0.70;;;0.70;;
15451;SDS011;7827;53.594;9.938;2024-03-02T12:53:14;0.70;;;0.70;;
15451;SDS011;7827;53.594;9.938;2024-03-02T12:55:43;0.70;;;0.70;;
15451;SDS011;7827;53.594;9.938;2024-03-02T12:58:18;0.70;;;0.70;;
15451;SDS011;7827;53.594;9.938;2024-03-02T13:00:47;0.70;;;0.70;;
15451;SDS011;7827;53.594;9.938;2024-03-02T13:03:17;0.70;;;0.70;;
15451;SDS011;7827;53.594;9.938;2024-03-02T13:05:50;0.70;;;0.70;;
15451;SDS011;7827;53.594;9.938;2024-03-02T13:08:19;0.70;;;0.70;;
15451;SDS011;7827;53.594;9.938;2024-03-02T13:10:47;0.70;;;0.70;;
15451;SDS011;7827;53.594;9.938;2024-03-02T13:13:17;0.70;;;0.70;;
15451;SDS011;7827;53.594;9.938;2024-03-02T13:15:46;0.70;;;0.70;;
15451;SDS011;7827;53.594;9.938;2024-03-02T13:18:14;0.70;;;0.70;;
15451;SDS011;7827;53.594;9.938;2024-03-02T13:20:45;0.70;;;0.70;;
15451;SDS011;7827;53.594;9.938;2024-03-02T13:23:14;0.70;;;0.70;;
15451;SDS011;7827;53.594;9.938;2024-03-02T13:25:42;0.70;;;0.70;;
15451;SDS011;7827;53.594;9.938;2024-03-02T13:28:10;0.70;;;0.70;;
15451;SDS011;7827;53.594;9.938;2024-03-02T13:30:40;0.70;;;0.70;;
15451;SDS011;7827;53.594;9.938;2024-03-02T13:33:08;0.60;;;0.60;;
15451;SDS011;7827;53.594;9.938;2024-03-02T13:35:36;0.70;;;0.70;;
15451;SDS011;7827;53.594;9.938;2024-03-02T13:38:04;0.60;;;0.60;;
15451;SDS011;7827;53.594;9.938;2024-03-02T13:40:33;0.70;;;0.70;;
15451;SDS011;7827;53.594;9.938;2024-03-02T13:43:02;0.63;;;0.63;;
15451;SDS011;7827;53.594;9.938;2024-03-02T13:45:30;0.60;;;0.60;;
15451;SDS011;7827;53.594;9.938;2024-03-02T13:48:01;0.65;;;0.65;;
15451;SDS011;7827;53.594;9.938;2024-03-02T13:50:29;0.70;;;0.70;;
15451;SDS011;7827;53.594;9.938;2024-03-02T13:52:58;0.68;;;0.68;;
15451;SDS011;7827;53.594;9.938;2024-03-02T13:55:26;0.70;;;0.70;;
15451;SDS011;7827;53.594;9.938;2024-03-02T13:57:54;0.70;;;0.70;;
15451;SDS011;7827;53.594;9.938;2024-03-02T14:00:23;0.70;;;0.70;;
15451;SDS011;7827;53.594;9.938;2024-03-02T14:02:52;0.60;;;0.60;;
15451;SDS011;7827;53.594;9.938;2024-03-02T14:05:21;0.70;;;0.70;;
15451;SDS011;7827;53.594;9.938;2024-03-02T14:07:49;0.70;;;0.70;;
15451;SDS011;7827;53.594;9.938;2024-03-02T14:10:17;0.60;;;0.60;;
15451;SDS011;7827;53.594;9.938;2024-03-02T14:12:48;0.70;;;0.70;;
15451;SDS011;7827;53.594;9.938;2024-03-02T14:15:17;0.70;;;0.70;;
15451;SDS011;7827;53.594;9.938;2024-03-02T14:17:47;0.60;;;0.60;;
15451;SDS011;7827;53.594;9.938;2024-03-02T14:20:16;0.60;;;0.60;;
15451;SDS011;7827;53.594;9.938;2024-03-02T14:22:50;0.60;;;0.60;;
15451;SDS011;7827;53.594;9.938;2024-03-02T14:25:18;0.60;;;0.60;;
15451;SDS011;7827;53.594;9.938;2024-03-02T14:27:46;0.60;;;0.60;;
15451;SDS011;7827;53.594;9.938;2024-03-02T14:30:34;0.60;;;0.60;;
15451;SDS011;7827;53.594;9.938;2024-03-02T14:33:04;0.60;;;0.60;;
15451;SDS011;7827;53.594;9.938;2024-03-02T14:35:32;0.70;;;0.70;;
15451;SDS011;7827;53.594;9.938;2024-03-02T14:38:01;0.70;;;0.70;;
15451;SDS011;7827;53.594;9.938;2024-03-02T14:40:30;0.68;;;0.68;;
15451;SDS011;7827;53.594;9.938;2024-03-02T14:42:58;0.70;;;0.70;;
15451;SDS011;7827;53.594;9.938;2024-03-02T14:45:26;0.60;;;0.60;;
15451;SDS011;7827;53.594;9.938;2024-03-02T14:47:54;0.60;;;0.60;;
15451;SDS011;7827;53.594;9.938;2024-03-02T14:50:26;0.70;;;0.70;;
15451;SDS011;7827;53.594;9.938;2024-03-02T14:52:54;0.60;;;0.60;;
15451;SDS011;7827;53.594;9.938;2024-03-02T14:55:25;0.60;;;0.60;;
15451;SDS011;7827;53.594;9.938;2024-03-02T14:57:53;0.70;;;0.70;;
15451;SDS011;7827;53.594;9.938;2024-03-02T15:00:22;0.68;;;0.68;;
15451;SDS011;7827;53.594;9.938;2024-03-02T15:02:50;0.70;;;0.70;;
15451;SDS011;7827;53.594;9.938;2024-03-02T15:05:19;0.70;;;0.70;;
15451;SDS011;7827;53.594;9.938;2024-03-02T15:07:47;0.60;;;0.60;;
15451;SDS011;7827;53.594;9.938;2024-03-02T15:10:15;0.60;;;0.60;;
15451;SDS011;7827;53.594;9.938;2024-03-02T15:12:46;0.60;;;0.60;;
15451;SDS011;7827;53.594;9.938;2024-03-02T15:15:15;0.60;;;0.60;;
15451;SDS011;7827;53.594;9.938;2024-03-02T15:17:44;0.70;;;0.70;;